createdAt,value
2023-02-14T00:01:20.756Z,99141.44
2023-02-14T00:03:49.444Z,99142.34
2023-02-14T00:06:16.925Z,99127.84
2023-02-14T00:08:47.240Z,99133.84
2023-02-14T00:11:14.577Z,99131.88
2023-02-14T00:14:02.211Z,99139.56
2023-02-14T00:16:29.605Z,99130.53
2023-02-14T00:19:03.404Z,99131.16
2023-02-14T00:21:37.604Z,99129.63
2023-02-14T00:24:09.042Z,99127.53
2023-02-14T00:26:38.789Z,99128.63
2023-02-14T00:29:13.308Z,99142.28
2023-02-14T00:31:41.753Z,99135.56
2023-02-14T00:34:10.354Z,99135.28
2023-02-14T00:36:38.476Z,99133.31
2023-02-14T00:39:08.258Z,99131.84
2023-02-14T00:41:38.713Z,99129.31
2023-02-14T00:44:06.894Z,99134.00
2023-02-14T00:46:35.130Z,99131.06
2023-02-14T00:49:02.418Z,99124.00
2023-02-14T00:51:30.024Z,99122.47
2023-02-14T00:53:57.274Z,99128.72
2023-02-14T00:56:24.504Z,99123.03
2023-02-14T00:58:51.647Z,99125.00
2023-02-14T01:01:19.977Z,99121.03
2023-02-14T01:03:48.021Z,99124.53
2023-02-14T01:06:15.705Z,99119.41
2023-02-14T01:08:42.987Z,99115.78
2023-02-14T01:11:15.200Z,99116.88
2023-02-14T01:13:43.773Z,99117.03
2023-02-14T01:16:14.899Z,99117.41
2023-02-14T01:18:43.337Z,99110.13
2023-02-14T01:21:20.961Z,99117.44
2023-02-14T01:23:52.099Z,99117.53
2023-02-14T01:26:21.428Z,99116.53
2023-02-14T01:28:48.954Z,99109.03
2023-02-14T01:31:28.885Z,99114.56
2023-02-14T01:33:57.774Z,99111.69
2023-02-14T01:36:35.501Z,99114.41
2023-02-14T01:39:11.643Z,99105.91
2023-02-14T01:41:41.618Z,99108.50
2023-02-14T01:44:28.682Z,99106.81
2023-02-14T01:46:57.557Z,99104.53
2023-02-14T01:49:35.515Z,99108.44
2023-02-14T01:52:41.820Z,99111.06
2023-02-14T01:55:17.102Z,99108.63
2023-02-14T01:58:11.174Z,99106.91
2023-02-14T02:00:58.552Z,99100.25
2023-02-14T02:03:42.317Z,99099.66
2023-02-14T02:06:14.115Z,99094.53
2023-02-14T02:08:57.612Z,99087.75
2023-02-14T02:11:25.884Z,99094.81
2023-02-14T02:13:53.051Z,99085.78
2023-02-14T02:16:41.473Z,99093.00
2023-02-14T02:19:51.564Z,99090.84
2023-02-14T02:22:53.581Z,99092.28
2023-02-14T02:26:26.176Z,99091.50
2023-02-14T02:29:29.986Z,99090.13
2023-02-14T02:32:21.050Z,99092.91
2023-02-14T02:35:18.151Z,99088.56
2023-02-14T02:38:08.069Z,99094.53
2023-02-14T02:41:14.175Z,99086.22
2023-02-14T02:44:10.598Z,99095.22
2023-02-14T02:46:49.113Z,99095.72
2023-02-14T02:49:52.365Z,99101.31
2023-02-14T02:53:01.526Z,99095.72
2023-02-14T02:55:59.862Z,99096.41
2023-02-14T02:58:35.149Z,99101.31
2023-02-14T03:01:10.684Z,99102.22
2023-02-14T03:04:06.377Z,99098.44
2023-02-14T03:06:34.532Z,99100.13
2023-02-14T03:09:33.871Z,99098.69
2023-02-14T03:12:00.981Z,99106.28
2023-02-14T03:14:51.823Z,99100.59
2023-02-14T03:17:56.149Z,99107.59
2023-02-14T03:20:57.814Z,99110.41
2023-02-14T03:23:43.979Z,99105.47
2023-02-14T03:26:35.637Z,99110.59
2023-02-14T03:29:08.610Z,99105.44
2023-02-14T03:32:14.308Z,99096.28
2023-02-14T03:35:12.266Z,99099.34
2023-02-14T03:37:55.885Z,99099.50
2023-02-14T03:40:34.863Z,99097.34
2023-02-14T03:43:20.595Z,99098.69
2023-02-14T03:46:12.159Z,99094.00
2023-02-14T03:48:43.440Z,99096.16
2023-02-14T03:51:13.935Z,99096.59
2023-02-14T03:53:47.864Z,99101.34
2023-02-14T03:56:52.074Z,99096.78
2023-02-14T03:59:28.552Z,99098.69
2023-02-14T04:02:12.195Z,99099.00
2023-02-14T04:04:45.126Z,99103.25
2023-02-14T04:07:16.210Z,99097.94
2023-02-14T04:09:43.995Z,99095.59
2023-02-14T04:12:12.039Z,99090.56
2023-02-14T04:14:39.960Z,99094.00
2023-02-14T04:17:26.640Z,99096.69
2023-02-14T04:19:53.831Z,99093.22
2023-02-14T04:22:21.249Z,99089.63
2023-02-14T04:24:48.647Z,99094.44
2023-02-14T04:27:15.809Z,99094.50
2023-02-14T04:29:49.759Z,99092.34
2023-02-14T04:32:21.995Z,99088.47
2023-02-14T04:34:49.829Z,99088.84
2023-02-14T04:37:19.614Z,99080.91
2023-02-14T04:39:47.084Z,99084.78
2023-02-14T04:42:14.521Z,99086.59
2023-02-14T04:44:42.063Z,99089.31
2023-02-14T04:47:09.884Z,99083.81
2023-02-14T04:49:37.330Z,99081.38
2023-02-14T04:52:05.739Z,99087.00
2023-02-14T04:54:33.386Z,99097.22
2023-02-14T04:57:00.669Z,99093.78
2023-02-14T04:59:27.892Z,99100.25
2023-02-14T05:01:55.275Z,99102.41
2023-02-14T05:04:22.595Z,99105.56
2023-02-14T05:06:49.764Z,99113.69
2023-02-14T05:09:17.015Z,99110.91
2023-02-14T05:11:44.279Z,99110.91
2023-02-14T05:14:11.940Z,99111.84
2023-02-14T05:16:39.383Z,99103.44
2023-02-14T05:19:06.788Z,99109.88
2023-02-14T05:21:34.407Z,99115.09
2023-02-14T05:24:02.062Z,99111.97
2023-02-14T05:26:29.779Z,99106.84
2023-02-14T05:28:57.322Z,99107.69
2023-02-14T05:31:24.715Z,99117.84
2023-02-14T05:33:52.104Z,99110.75
2023-02-14T05:36:19.267Z,99118.97
2023-02-14T05:38:46.472Z,99120.56
2023-02-14T05:41:13.761Z,99124.63
2023-02-14T05:43:41.077Z,99131.16
2023-02-14T05:46:08.416Z,99130.00
2023-02-14T05:48:35.778Z,99133.16
2023-02-14T05:51:09.166Z,99140.44
2023-02-14T05:53:36.862Z,99142.03
2023-02-14T05:56:05.226Z,99144.25
2023-02-14T05:58:32.698Z,99140.53
2023-02-14T06:01:00.841Z,99141.47
2023-02-14T06:03:28.327Z,99139.75
2023-02-14T06:05:55.575Z,99140.66
2023-02-14T06:08:22.946Z,99140.31
2023-02-14T06:10:50.236Z,99139.25
2023-02-14T06:13:17.581Z,99132.09
2023-02-14T06:15:44.826Z,99138.28
2023-02-14T06:18:12.120Z,99145.59
2023-02-14T06:20:39.364Z,99137.25
2023-02-14T06:23:06.672Z,99145.88
2023-02-14T06:25:33.960Z,99149.63
2023-02-14T06:28:01.165Z,99153.81
2023-02-14T06:30:28.763Z,99154.28
2023-02-14T06:32:56.057Z,99160.59
2023-02-14T06:35:23.265Z,99159.69
2023-02-14T06:37:50.499Z,99155.00
2023-02-14T06:40:19.732Z,99160.06
2023-02-14T06:42:47.001Z,99163.97
2023-02-14T06:45:14.333Z,99165.78
2023-02-14T06:47:41.487Z,99165.69
2023-02-14T06:50:11.817Z,99162.00
2023-02-14T06:52:39.902Z,99163.63
2023-02-14T06:55:07.764Z,99164.81
2023-02-14T06:57:34.936Z,99167.47
2023-02-14T07:00:02.369Z,99163.84
2023-02-14T07:02:29.690Z,99160.59
2023-02-14T07:04:56.998Z,99165.47
2023-02-14T07:07:24.139Z,99163.25
2023-02-14T07:09:52.112Z,99157.06
2023-02-14T07:12:19.359Z,99167.47
2023-02-14T07:14:46.713Z,99163.69
2023-02-14T07:17:13.920Z,99160.81
2023-02-14T07:19:41.128Z,99167.19
2023-02-14T07:22:08.424Z,99161.06
2023-02-14T07:24:35.624Z,99162.25
2023-02-14T07:27:03.015Z,99155.31
2023-02-14T07:29:30.314Z,99163.84
2023-02-14T07:31:57.718Z,99160.84
2023-02-14T07:34:25.078Z,99166.91
2023-02-14T07:36:52.330Z,99165.69
2023-02-14T07:39:19.657Z,99163.00
2023-02-14T07:41:46.806Z,99163.69
2023-02-14T07:44:19.609Z,99168.53
2023-02-14T07:46:46.978Z,99162.22
2023-02-14T07:49:14.156Z,99162.97
2023-02-14T07:51:41.417Z,99165.75
2023-02-14T07:54:08.700Z,99164.38
2023-02-14T07:56:36.076Z,99165.91
2023-02-14T07:59:03.478Z,99162.81
2023-02-14T08:01:30.862Z,99167.06
2023-02-14T08:03:58.092Z,99164.97
2023-02-14T08:06:27.838Z,99163.63
2023-02-14T08:08:55.114Z,99162.63
2023-02-14T08:11:41.161Z,99167.06
2023-02-14T08:14:08.487Z,99165.97
2023-02-14T08:16:35.925Z,99155.16
2023-02-14T08:19:03.280Z,99163.56
2023-02-14T08:21:31.076Z,99162.41
2023-02-14T08:23:58.541Z,99158.22
2023-02-14T08:26:25.877Z,99160.81
2023-02-14T08:28:53.251Z,99160.53
2023-02-14T08:31:35.729Z,99172.25
2023-02-14T08:34:05.631Z,99163.91
2023-02-14T08:36:33.536Z,99166.78
2023-02-14T08:39:01.781Z,99171.84
2023-02-14T08:41:29.024Z,99170.31
2023-02-14T08:43:56.177Z,99165.81
2023-02-14T08:46:23.758Z,99176.84
2023-02-14T08:48:51.828Z,99174.66
2023-02-14T08:51:19.248Z,99167.63
2023-02-14T08:53:46.491Z,99171.75
2023-02-14T08:56:15.526Z,99170.84
2023-02-14T08:58:43.082Z,99178.25
2023-02-14T09:01:12.985Z,99169.06
2023-02-14T09:03:40.410Z,99174.09
2023-02-14T09:06:11.963Z,99188.97
2023-02-14T09:08:39.915Z,99183.66
2023-02-14T09:11:22.444Z,99186.53
2023-02-14T09:13:53.220Z,99189.47
2023-02-14T09:16:21.626Z,99190.44
2023-02-14T09:18:49.970Z,99195.50
2023-02-14T09:21:23.008Z,99192.06
2023-02-14T09:23:50.463Z,99187.03
2023-02-14T09:26:18.988Z,99192.34
2023-02-14T09:28:47.627Z,99196.94
2023-02-14T09:31:17.411Z,99192.81
2023-02-14T09:34:05.344Z,99188.94
2023-02-14T09:36:51.309Z,99198.56
2023-02-14T09:39:18.656Z,99199.09
2023-02-14T09:42:37.512Z,99187.78
2023-02-14T09:45:22.596Z,99194.03
2023-02-14T09:47:52.892Z,99196.28
2023-02-14T09:50:43.096Z,99191.16
2023-02-14T09:53:16.136Z,99184.00
2023-02-14T09:56:12.365Z,99198.91
2023-02-14T09:58:56.260Z,99199.97
2023-02-14T10:01:43.479Z,99194.94
2023-02-14T10:04:36.734Z,99189.28
2023-02-14T10:07:32.006Z,99186.47
2023-02-14T10:10:24.663Z,99181.56
2023-02-14T10:13:20.851Z,99190.31
2023-02-14T10:16:08.311Z,99188.44
2023-02-14T10:18:57.647Z,99194.84
2023-02-14T10:21:37.124Z,99188.06
2023-02-14T10:24:23.134Z,99190.56
2023-02-14T10:26:53.035Z,99188.63
2023-02-14T10:29:21.074Z,99177.72
2023-02-14T10:32:04.169Z,99184.50
2023-02-14T10:34:52.025Z,99185.28
2023-02-14T10:37:55.240Z,99174.41
2023-02-14T10:41:00.054Z,99185.06
2023-02-14T10:44:02.204Z,99186.22
2023-02-14T10:47:15.781Z,99179.13
2023-02-14T10:50:10.244Z,99184.06
2023-02-14T10:53:20.571Z,99187.56
2023-02-14T10:55:57.040Z,99185.25
2023-02-14T10:58:29.252Z,99182.31
2023-02-14T11:01:17.293Z,99178.56
2023-02-14T11:04:06.639Z,99175.75
2023-02-14T11:06:34.709Z,99172.63
2023-02-14T11:09:01.932Z,99173.63
2023-02-14T11:11:40.991Z,99174.00
2023-02-14T11:14:36.532Z,99173.75
2023-02-14T11:17:32.483Z,99171.63
2023-02-14T11:20:25.667Z,99169.22
2023-02-14T11:22:52.916Z,99157.75
2023-02-14T11:25:25.187Z,99158.34
2023-02-14T11:28:08.152Z,99155.78
2023-02-14T11:30:45.881Z,99145.66
2023-02-14T11:33:52.335Z,99151.38
2023-02-14T11:36:19.964Z,99150.50
2023-02-14T11:39:26.226Z,99149.38
2023-02-14T11:41:57.099Z,99141.47
2023-02-14T11:44:28.884Z,99151.44
2023-02-14T11:47:15.968Z,99150.69
2023-02-14T11:49:58.997Z,99142.88
2023-02-14T11:52:29.697Z,99143.06
2023-02-14T11:54:58.328Z,99134.59
2023-02-14T11:57:38.205Z,99141.28
2023-02-14T12:00:17.650Z,99135.56
2023-02-14T12:02:50.656Z,99137.19
2023-02-14T12:05:35.299Z,99138.63
2023-02-14T12:08:06.311Z,99142.72
2023-02-14T12:10:42.162Z,99124.53
2023-02-14T12:13:09.327Z,99130.19
2023-02-14T12:15:55.831Z,99124.50
2023-02-14T12:18:50.597Z,99125.72
2023-02-14T12:21:57.049Z,99127.16
2023-02-14T12:25:03.036Z,99129.00
2023-02-14T12:27:43.972Z,99124.97
2023-02-14T12:30:22.235Z,99124.94
2023-02-14T12:32:53.486Z,99116.81
2023-02-14T12:35:55.650Z,99110.50
2023-02-14T12:38:31.103Z,99101.88
2023-02-14T12:41:12.555Z,99103.84
2023-02-14T12:43:56.290Z,99101.47
2023-02-14T12:46:51.536Z,99094.41
2023-02-14T12:49:58.113Z,99084.06
2023-02-14T12:53:08.239Z,99083.06
2023-02-14T12:56:21.247Z,99077.81
2023-02-14T12:59:24.298Z,99080.44
2023-02-14T13:02:38.431Z,99084.34
2023-02-14T13:05:47.468Z,99084.63
2023-02-14T13:08:46.514Z,99079.16
2023-02-14T13:11:46.493Z,99084.06
2023-02-14T13:14:47.000Z,99082.72
2023-02-14T13:17:35.398Z,99076.13
2023-02-14T13:20:32.592Z,99075.97
2023-02-14T13:23:11.925Z,99081.38
2023-02-14T13:25:50.162Z,99076.63
2023-02-14T13:28:19.542Z,99066.97
2023-02-14T13:30:46.899Z,99077.31
2023-02-14T13:33:25.047Z,99069.06
2023-02-14T13:36:00.156Z,99068.09
2023-02-14T13:38:31.719Z,99063.09
2023-02-14T13:41:01.793Z,99069.03
2023-02-14T13:44:08.296Z,99061.22
2023-02-14T13:46:35.523Z,99065.56
2023-02-14T13:49:31.778Z,99061.16
2023-02-14T13:52:05.153Z,99067.84
2023-02-14T13:54:48.070Z,99065.84
2023-02-14T13:57:37.689Z,99070.13
2023-02-14T14:00:20.263Z,99068.34
2023-02-14T14:02:57.485Z,99063.88
2023-02-14T14:05:33.519Z,99065.53
2023-02-14T14:08:23.823Z,99068.75
2023-02-14T14:10:57.624Z,99065.28
2023-02-14T14:13:43.094Z,99067.06
2023-02-14T14:16:28.133Z,99065.97
2023-02-14T14:19:16.728Z,99062.56
2023-02-14T14:22:00.061Z,99072.69
2023-02-14T14:24:34.927Z,99074.06
2023-02-14T14:27:19.853Z,99072.53
2023-02-14T14:30:02.848Z,99066.47
2023-02-14T14:32:36.973Z,99067.09
2023-02-14T14:35:13.325Z,99060.47
2023-02-14T14:37:52.753Z,99068.06
2023-02-14T14:40:29.670Z,99070.72
2023-02-14T14:43:07.464Z,99065.06
2023-02-14T14:45:35.212Z,99074.19
2023-02-14T14:48:12.784Z,99075.91
2023-02-14T14:50:49.036Z,99068.94
2023-02-14T14:53:35.482Z,99066.53
2023-02-14T14:56:02.937Z,99062.28
2023-02-14T14:58:41.889Z,99065.50
2023-02-14T15:01:27.187Z,99066.44
2023-02-14T15:03:55.769Z,99074.41
2023-02-14T15:06:23.323Z,99071.97
2023-02-14T15:08:51.515Z,99072.06
2023-02-14T15:11:46.161Z,99075.78
2023-02-14T15:14:24.559Z,99075.16
2023-02-14T15:16:59.263Z,99068.47
2023-02-14T15:19:54.259Z,99073.97
2023-02-14T15:22:36.332Z,99078.38
2023-02-14T15:25:22.798Z,99066.78
2023-02-14T15:27:50.642Z,99066.59
2023-02-14T15:30:23.635Z,99067.47
2023-02-14T15:32:52.653Z,99064.97
2023-02-14T15:35:34.094Z,99063.31
2023-02-14T15:38:05.757Z,99073.16
2023-02-14T15:40:35.799Z,99072.78
2023-02-14T15:43:27.882Z,99061.41
2023-02-14T15:46:14.415Z,99070.47
2023-02-14T15:48:42.133Z,99073.91
2023-02-14T15:51:29.361Z,99066.47
2023-02-14T15:53:59.500Z,99065.13
2023-02-14T15:56:43.144Z,99067.38
2023-02-14T15:59:19.405Z,99073.38
2023-02-14T16:02:03.378Z,99070.94
2023-02-14T16:04:35.573Z,99068.63
2023-02-14T16:07:27.818Z,99073.34
2023-02-14T16:10:22.888Z,99076.16
2023-02-14T16:13:03.101Z,99066.69
2023-02-14T16:15:36.723Z,99074.47
2023-02-14T16:18:17.128Z,99077.72
2023-02-14T16:20:51.190Z,99079.00
2023-02-14T16:23:21.592Z,99083.50
2023-02-14T16:25:50.169Z,99075.22
2023-02-14T16:28:17.978Z,99083.28
2023-02-14T16:30:47.932Z,99077.41
2023-02-14T16:33:23.236Z,99084.25
2023-02-14T16:35:51.271Z,99081.00
2023-02-14T16:38:21.077Z,99084.69
2023-02-14T16:40:52.350Z,99088.94
2023-02-14T16:43:21.348Z,99088.31
2023-02-14T16:45:49.319Z,99094.06
2023-02-14T16:48:16.708Z,99090.91
2023-02-14T16:50:44.962Z,99091.25
2023-02-14T16:53:27.485Z,99093.63
2023-02-14T16:55:57.317Z,99093.22
2023-02-14T16:58:33.720Z,99103.28
2023-02-14T17:01:01.402Z,99103.91
2023-02-14T17:03:29.072Z,99111.78
2023-02-14T17:05:58.529Z,99103.16
2023-02-14T17:08:26.224Z,99108.16
2023-02-14T17:10:56.712Z,99114.31
2023-02-14T17:13:27.219Z,99109.25
2023-02-14T17:15:56.145Z,99111.53
2023-02-14T17:18:24.953Z,99099.78
2023-02-14T17:20:52.664Z,99111.97
2023-02-14T17:23:20.952Z,99101.09
2023-02-14T17:25:48.388Z,99107.59
2023-02-14T17:28:15.557Z,99106.22
2023-02-14T17:30:42.891Z,99104.25
2023-02-14T17:33:10.355Z,99107.25
2023-02-14T17:35:38.617Z,99111.56
2023-02-14T17:38:05.823Z,99103.91
2023-02-14T17:40:33.227Z,99110.97
2023-02-14T17:43:01.290Z,99107.25
2023-02-14T17:45:28.642Z,99104.47
2023-02-14T17:47:55.989Z,99110.09
2023-02-14T17:50:23.327Z,99106.22
2023-02-14T17:52:57.669Z,99099.34
2023-02-14T17:55:25.149Z,99106.47
2023-02-14T17:57:52.692Z,99107.00
2023-02-14T18:00:24.357Z,99102.41
2023-02-14T18:02:51.712Z,99098.78
2023-02-14T18:05:19.021Z,99098.34
2023-02-14T18:07:46.227Z,99100.50
2023-02-14T18:10:13.453Z,99106.22
2023-02-14T18:12:41.307Z,99103.59
2023-02-14T18:15:09.335Z,99101.78
2023-02-14T18:17:36.637Z,99096.78
2023-02-14T18:20:05.487Z,99097.97
2023-02-14T18:22:32.716Z,99099.63
2023-02-14T18:24:59.985Z,99091.81
2023-02-14T18:27:27.537Z,99087.63
2023-02-14T18:29:54.811Z,99093.19
2023-02-14T18:32:22.085Z,99091.34
2023-02-14T18:34:49.439Z,99088.53
2023-02-14T18:37:16.814Z,99082.84
2023-02-14T18:39:44.461Z,99088.91
2023-02-14T18:42:11.671Z,99081.84
2023-02-14T18:44:39.021Z,99086.66
2023-02-14T18:47:08.867Z,99084.53
2023-02-14T18:49:36.245Z,99088.19
2023-02-14T18:52:04.990Z,99085.22
2023-02-14T18:54:32.335Z,99084.13
2023-02-14T18:56:59.601Z,99078.88
2023-02-14T18:59:27.012Z,99076.34
2023-02-14T19:01:54.333Z,99077.78
2023-02-14T19:04:21.752Z,99074.81
2023-02-14T19:06:49.567Z,99081.66
2023-02-14T19:09:18.663Z,99071.59
2023-02-14T19:11:46.538Z,99068.59
2023-02-14T19:14:13.947Z,99066.03
2023-02-14T19:16:50.207Z,99061.06
2023-02-14T19:19:18.078Z,99060.38
2023-02-14T19:21:45.851Z,99066.72
2023-02-14T19:24:14.663Z,99063.00
2023-02-14T19:26:42.743Z,99059.31
2023-02-14T19:29:16.479Z,99062.56
2023-02-14T19:31:48.233Z,99061.41
2023-02-14T19:34:28.934Z,99065.94
2023-02-14T19:36:59.872Z,99069.44
2023-02-14T19:39:31.666Z,99068.31
2023-02-14T19:42:00.588Z,99055.50
2023-02-14T19:44:29.404Z,99056.69
2023-02-14T19:47:00.170Z,99061.84
2023-02-14T19:49:29.438Z,99061.13
2023-02-14T19:51:57.827Z,99061.13
2023-02-14T19:54:25.799Z,99059.72
2023-02-14T19:56:56.158Z,99057.03
2023-02-14T19:59:23.619Z,99050.19
2023-02-14T20:01:55.649Z,99058.13
2023-02-14T20:04:27.603Z,99051.69
2023-02-14T20:06:56.097Z,99050.69
2023-02-14T20:09:25.678Z,99051.81
2023-02-14T20:11:56.597Z,99052.00
2023-02-14T20:14:29.294Z,99050.59
2023-02-14T20:16:59.734Z,99048.47
2023-02-14T20:19:32.214Z,99051.88
2023-02-14T20:22:00.599Z,99058.38
2023-02-14T20:24:32.227Z,99051.13
2023-02-14T20:27:03.383Z,99046.38
2023-02-14T20:29:30.742Z,99056.53
2023-02-14T20:32:00.259Z,99047.31
2023-02-14T20:34:27.880Z,99047.50
2023-02-14T20:36:56.073Z,99048.84
2023-02-14T20:39:32.974Z,99044.00
2023-02-14T20:42:01.369Z,99036.31
2023-02-14T20:44:29.001Z,99044.94
2023-02-14T20:46:57.249Z,99041.91
2023-02-14T20:49:27.553Z,99044.94
2023-02-14T20:51:56.117Z,99044.63
2023-02-14T20:54:26.150Z,99037.88
2023-02-14T20:56:53.413Z,99045.53
2023-02-14T20:59:27.209Z,99041.81
2023-02-14T21:01:59.260Z,99037.50
2023-02-14T21:04:26.941Z,99038.03
2023-02-14T21:06:54.662Z,99034.81
2023-02-14T21:09:21.962Z,99031.94
2023-02-14T21:11:50.372Z,99025.44
2023-02-14T21:14:17.723Z,99021.56
2023-02-14T21:16:44.970Z,99025.81
2023-02-14T21:19:12.225Z,99024.00
2023-02-14T21:21:39.854Z,99021.13
2023-02-14T21:24:11.210Z,99018.78
2023-02-14T21:26:39.342Z,99022.22
2023-02-14T21:29:07.194Z,99012.38
2023-02-14T21:31:35.093Z,99017.50
2023-02-14T21:34:03.463Z,99007.72
2023-02-14T21:36:36.048Z,99004.28
2023-02-14T21:39:04.940Z,99007.28
2023-02-14T21:41:33.167Z,99007.63
2023-02-14T21:44:01.974Z,99004.75
2023-02-14T21:46:32.709Z,99006.28
2023-02-14T21:49:23.979Z,98995.81
2023-02-14T21:51:51.616Z,98992.53
2023-02-14T21:54:19.040Z,98994.28
2023-02-14T21:56:46.389Z,98995.25
2023-02-14T21:59:13.908Z,98988.97
2023-02-14T22:01:43.054Z,98991.50
2023-02-14T22:04:12.652Z,98983.91
2023-02-14T22:06:41.992Z,98991.28
2023-02-14T22:09:17.458Z,98995.16
2023-02-14T22:11:48.800Z,98996.34
2023-02-14T22:14:16.516Z,98992.53
2023-02-14T22:16:43.776Z,98984.44
2023-02-14T22:19:15.605Z,98989.56
2023-02-14T22:21:43.758Z,98986.13
2023-02-14T22:24:10.984Z,98980.28
2023-02-14T22:26:39.541Z,98981.63
2023-02-14T22:29:09.654Z,98967.84
2023-02-14T22:31:41.270Z,98970.19
2023-02-14T22:34:11.841Z,98968.84
2023-02-14T22:36:39.129Z,98963.25
2023-02-14T22:39:06.973Z,98969.00
2023-02-14T22:41:37.805Z,98969.22
2023-02-14T22:44:06.269Z,98967.97
2023-02-14T22:46:36.835Z,98959.47
2023-02-14T22:49:05.576Z,98961.38
2023-02-14T22:51:35.804Z,98963.53
2023-02-14T22:54:07.367Z,98959.03
2023-02-14T22:56:41.350Z,98954.81
2023-02-14T22:59:17.992Z,98960.38
2023-02-14T23:01:46.469Z,98952.97
2023-02-14T23:04:15.514Z,98954.97
2023-02-14T23:06:43.283Z,98953.63
2023-02-14T23:09:12.279Z,98957.78
2023-02-14T23:11:42.099Z,98953.38
2023-02-14T23:14:34.099Z,98954.88
2023-02-14T23:17:14.554Z,98940.03
2023-02-14T23:20:00.899Z,98947.88
2023-02-14T23:22:35.730Z,98938.13
2023-02-14T23:25:07.126Z,98934.97
2023-02-14T23:27:41.907Z,98930.31
2023-02-14T23:30:15.971Z,98922.72
2023-02-14T23:32:44.905Z,98928.94
2023-02-14T23:35:12.448Z,98922.06
2023-02-14T23:37:40.219Z,98912.34
2023-02-14T23:40:08.404Z,98919.91
2023-02-14T23:42:35.596Z,98916.09
2023-02-14T23:45:21.781Z,98914.38
2023-02-14T23:47:49.048Z,98913.19
2023-02-14T23:50:16.473Z,98917.53
2023-02-14T23:52:44.663Z,98911.16
2023-02-14T23:55:12.685Z,98911.06
2023-02-14T23:57:39.998Z,98907.50
